Time;durP1;ratioP1;P1;durP2;ratioP2;P2;SDS_P1;SDS_P2;PMS_P1;PMS_P2;Temp;Humidity;BMP_temperature;BMP_pressure;BME280_temperature;BME280_humidity;BME280_pressure;Samples;Min_cycle;Max_cycle;Signal;HPM_P1;HPM_P2
2022/02/02 00:04:51;;;;;;;0.80;0.80;;;-5.20;99.90;;;;;;5046727;28;20311;-66
2022/02/02 00:09:57;;;;;;;0.63;0.63;;;-5.20;99.90;;;;;;5038916;28;20193;-67
2022/02/02 00:15:01;;;;;;;0.90;0.90;;;-5.20;99.90;;;;;;5047588;28;20201;-67
2022/02/02 00:17:45;;;;;;;0.80;0.80;;;-5.30;99.90;;;;;;5047412;28;20672;-67
2022/02/02 00:20:20;;;;;;;0.70;0.70;;;-5.20;99.90;;;;;;5045092;28;20209;-67
2022/02/02 00:22:49;;;;;;;0.90;0.90;;;-5.20;99.90;;;;;;5045069;28;20680;-68
2022/02/02 00:25:21;;;;;;;0.80;0.80;;;-5.30;99.90;;;;;;5044479;28;20287;-68
2022/02/02 00:27:51;;;;;;;0.80;0.80;;;-5.30;99.90;;;;;;5046067;28;20208;-69
2022/02/02 00:30:20;;;;;;;0.90;0.90;;;-5.30;99.90;;;;;;5043978;28;20205;-67
2022/02/02 00:33:08;;;;;;;0.80;0.80;;;-5.40;99.90;;;;;;5046455;28;20546;-74
2022/02/02 00:35:40;;;;;;;0.87;0.87;;;-5.30;99.90;;;;;;5047243;28;20208;-68
2022/02/02 00:38:05;;;;;;;0.80;0.80;;;-5.40;99.90;;;;;;5046877;28;20208;-71
2022/02/02 00:40:31;;;;;;;0.80;0.80;;;-5.40;99.90;;;;;;5049627;28;20576;-75
2022/02/02 00:42:57;;;;;;;0.80;0.80;;;-5.40;99.90;;;;;;5046482;28;20216;-68
2022/02/02 00:45:33;;;;;;;0.80;0.80;;;-5.40;99.90;;;;;;5050732;28;20198;-68
2022/02/02 00:48:01;;;;;;;0.80;0.80;;;-5.40;99.90;;;;;;5050022;28;20211;-68
2022/02/02 00:50:27;;;;;;;0.90;0.90;;;-5.40;99.90;;;;;;5050636;28;20190;-67
2022/02/02 00:52:54;;;;;;;0.80;0.80;;;-5.50;99.90;;;;;;5050691;28;20703;-67
2022/02/02 00:55:20;;;;;;;0.80;0.80;;;-5.40;99.90;;;;;;5047853;28;20316;-69
2022/02/02 00:57:46;;;;;;;0.77;0.77;;;-5.40;99.90;;;;;;5049643;28;20202;-69
2022/02/02 01:00:14;;;;;;;0.90;0.90;;;-5.40;99.90;;;;;;5049439;28;20297;-68
2022/02/02 01:02:42;;;;;;;0.80;0.80;;;-5.40;99.90;;;;;;5048877;28;20673;-68
2022/02/02 01:05:08;;;;;;;0.80;0.80;;;-5.40;99.90;;;;;;5050596;28;20201;-69
2022/02/02 01:15:48;;;;;;;0.80;0.80;;;-5.40;99.90;;;;;;5051360;28;20209;-67
2022/02/02 01:28:26;;;;;;;0.83;0.83;;;-5.40;99.90;;;;;;5049069;28;20262;-67
2022/02/02 01:30:52;;;;;;;0.80;0.80;;;-5.40;99.90;;;;;;5048860;28;20202;-67
2022/02/02 01:33:18;;;;;;;1.30;1.20;;;-5.40;99.90;;;;;;5047193;28;20214;-68
2022/02/02 01:35:44;;;;;;;0.80;0.80;;;-5.40;99.90;;;;;;5032472;28;20372;-68
2022/02/02 01:38:11;;;;;;;0.80;0.80;;;-5.40;99.90;;;;;;5031437;28;20893;-67
2022/02/02 01:40:42;;;;;;;0.90;0.90;;;-5.40;99.90;;;;;;5050258;28;20202;-68
2022/02/02 01:43:16;;;;;;;0.90;0.90;;;-5.50;99.90;;;;;;5016154;28;20230;-68
2022/02/02 01:45:55;;;;;;;0.80;0.80;;;-5.50;99.90;;;;;;5031884;28;20202;-68
2022/02/02 01:48:43;;;;;;;0.90;0.90;;;-5.60;99.90;;;;;;5031441;28;20201;-68
2022/02/02 01:56:11;;;;;;;0.80;0.80;;;-5.60;99.90;;;;;;5049361;28;20218;-68
2022/02/02 02:01:21;;;;;;;0.80;0.80;;;-5.60;99.90;;;;;;5018332;28;20241;-68
2022/02/02 02:03:48;;;;;;;0.80;0.80;;;-5.70;99.90;;;;;;5049329;28;20230;-67
2022/02/02 02:06:13;;;;;;;0.90;0.90;;;-5.60;99.90;;;;;;5050380;28;20589;-68
2022/02/02 02:08:41;;;;;;;0.70;0.70;;;-5.70;99.90;;;;;;5050451;28;20202;-67
2022/02/02 02:11:14;;;;;;;0.80;0.80;;;-5.60;99.90;;;;;;5048622;28;20205;-68
2022/02/02 02:16:09;;;;;;;0.90;0.90;;;-5.60;99.90;;;;;;5050507;28;20202;-67
2022/02/02 02:18:34;;;;;;;0.80;0.80;;;-5.60;99.90;;;;;;5047713;28;20208;-68
2022/02/02 02:21:00;;;;;;;0.80;0.80;;;-5.50;99.90;;;;;;5033035;28;20202;-67
2022/02/02 02:23:34;;;;;;;10.13;4.73;;;-5.50;99.90;;;;;;5046583;28;20355;-67
2022/02/02 02:26:00;;;;;;;0.80;0.80;;;-5.50;99.90;;;;;;5015260;28;20683;-67
2022/02/02 02:28:55;;;;;;;1.13;1.07;;;-5.40;99.90;;;;;;5045894;28;20198;-68
2022/02/02 03:30:31;;;;;;;0.70;0.70;;;-5.60;99.90;;;;;;5040964;28;20229;-68
2022/02/02 03:57:59;;;;;;;0.77;0.77;;;-6.00;99.90;;;;;;5045679;28;20258;-67
2022/02/02 04:05:48;;;;;;;0.80;0.80;;;-6.10;99.90;;;;;;5033374;28;20204;-68
2022/02/02 04:10:42;;;;;;;0.90;0.90;;;-6.20;99.90;;;;;;5038377;28;20206;-67
2022/02/02 04:37:43;;;;;;;0.87;0.87;;;-6.60;99.90;;;;;;5050478;28;20213;-67
2022/02/02 04:59:45;;;;;;;0.90;0.90;;;-6.70;99.90;;;;;;5050704;28;20331;-67
2022/02/02 05:18:38;;;;;;;0.80;0.80;;;-7.00;99.90;;;;;;5050098;28;20263;-67
2022/02/02 05:52:10;;;;;;;0.80;0.80;;;-7.00;99.90;;;;;;5050380;28;20688;-67
2022/02/02 05:54:36;;;;;;;0.80;0.80;;;-7.10;99.90;;;;;;5048051;28;20201;-67
2022/02/02 05:57:03;;;;;;;0.80;0.80;;;-7.10;99.90;;;;;;5049188;28;20278;-67
2022/02/02 05:59:32;;;;;;;0.90;0.90;;;-7.20;99.90;;;;;;5046924;28;20581;-68
2022/02/02 06:01:58;;;;;;;0.80;0.80;;;-7.30;99.90;;;;;;5041917;28;20221;-67
2022/02/02 06:04:27;;;;;;;0.80;0.80;;;-7.30;99.90;;;;;;5045248;28;20213;-68
2022/02/02 06:06:55;;;;;;;0.80;0.80;;;-7.40;99.90;;;;;;5046816;28;20687;-67
2022/02/02 06:09:29;;;;;;;0.90;0.90;;;-7.50;99.90;;;;;;5040993;28;20915;-68
2022/02/02 06:11:55;;;;;;;0.80;0.80;;;-7.60;99.90;;;;;;5043582;28;20212;-67
2022/02/02 06:14:27;;;;;;;0.80;0.80;;;-7.60;99.90;;;;;;5046541;28;20202;-69
2022/02/02 06:16:56;;;;;;;0.80;0.80;;;-7.80;99.90;;;;;;5045624;28;20209;-67
2022/02/02 06:19:25;;;;;;;0.80;0.80;;;-7.80;99.90;;;;;;5048768;28;20303;-67
2022/02/02 06:22:00;;;;;;;0.83;0.83;;;-7.80;99.90;;;;;;5047663;28;20197;-67
2022/02/02 06:24:33;;;;;;;0.80;0.80;;;-7.80;99.90;;;;;;5047312;28;20202;-67
2022/02/02 06:27:09;;;;;;;0.90;0.90;;;-7.90;99.90;;;;;;5045681;28;20201;-67
2022/02/02 06:30:03;;;;;;;0.83;0.83;;;-8.00;99.90;;;;;;5045490;28;20197;-66
2022/02/02 06:32:55;;;;;;;0.80;0.80;;;-8.10;99.90;;;;;;5037728;28;20639;-67
2022/02/02 06:35:24;;;;;;;0.80;0.80;;;-8.10;99.90;;;;;;5019096;28;20214;-67
2022/02/02 06:37:50;;;;;;;0.90;0.90;;;-8.20;99.90;;;;;;5043736;28;20312;-66
2022/02/02 06:40:17;;;;;;;0.80;0.80;;;-8.20;99.90;;;;;;5047558;28;20288;-67
2022/02/02 06:42:43;;;;;;;0.90;0.90;;;-8.30;99.90;;;;;;5037580;28;20214;-69
2022/02/02 06:45:11;;;;;;;0.80;0.80;;;-8.30;99.90;;;;;;5032412;28;20217;-66
2022/02/02 06:47:38;;;;;;;0.70;0.70;;;-8.40;99.90;;;;;;5039747;28;20206;-67
2022/02/02 06:50:30;;;;;;;0.80;0.80;;;-8.40;99.90;;;;;;5047411;28;20673;-67
2022/02/02 06:53:24;;;;;;;0.90;0.90;;;-8.40;99.90;;;;;;5036215;28;20217;-67
2022/02/02 06:56:30;;;;;;;0.80;0.80;;;-8.40;99.90;;;;;;5013450;28;20223;-67
2022/02/02 07:04:52;;;;;;;0.90;0.90;;;-8.40;99.90;;;;;;5035140;28;20214;-67
2022/02/02 07:18:17;;;;;;;0.80;0.80;;;-8.00;99.90;;;;;;5037352;28;20205;-67
2022/02/02 07:28:31;;;;;;;0.80;0.80;;;-7.80;99.90;;;;;;5031814;28;20217;-66
2022/02/02 07:33:52;;;;;;;0.80;0.80;;;-7.60;99.90;;;;;;5013026;28;20213;-66
2022/02/02 07:36:32;;;;;;;0.90;0.90;;;-7.50;99.90;;;;;;5014522;28;20195;-67
2022/02/02 07:39:07;;;;;;;0.87;0.87;;;-7.40;99.90;;;;;;5032470;28;20284;-66
2022/02/02 07:41:38;;;;;;;0.90;0.90;;;-7.40;99.90;;;;;;5046651;28;20651;-67
2022/02/02 07:44:18;;;;;;;0.90;0.90;;;-7.40;99.90;;;;;;5032240;28;20206;-67
2022/02/02 07:46:49;;;;;;;0.90;0.90;;;-7.40;99.90;;;;;;5047437;28;20213;-67
2022/02/02 07:49:17;;;;;;;0.80;0.80;;;-7.30;99.90;;;;;;5036434;28;20296;-67
2022/02/02 07:51:46;;;;;;;0.90;0.90;;;-7.40;99.90;;;;;;5049216;28;20281;-66
2022/02/02 07:54:19;;;;;;;1.00;1.00;;;-7.40;99.90;;;;;;5036760;28;20197;-67
2022/02/02 07:56:46;;;;;;;0.77;0.77;;;-7.40;99.90;;;;;;5038221;28;20225;-67
2022/02/02 07:59:30;;;;;;;0.90;0.90;;;-7.40;99.90;;;;;;5047379;28;20198;-67
2022/02/02 08:01:58;;;;;;;1.47;1.37;;;-7.40;99.90;;;;;;5036992;28;20232;-67
2022/02/02 08:04:28;;;;;;;0.90;0.90;;;-7.50;99.90;;;;;;5049069;28;20202;-67
2022/02/02 08:06:55;;;;;;;1.30;1.20;;;-7.50;99.90;;;;;;5050472;28;20194;-67
2022/02/02 08:09:32;;;;;;;0.90;0.90;;;-7.50;99.90;;;;;;5051183;28;20289;-67
2022/02/02 08:11:59;;;;;;;1.70;1.60;;;-7.50;99.90;;;;;;5050268;28;20213;-67
2022/02/02 08:14:27;;;;;;;1.13;1.10;;;-7.50;99.90;;;;;;5048445;28;20213;-66
2022/02/02 08:16:52;;;;;;;0.80;0.80;;;-7.50;99.90;;;;;;5018681;28;20214;-66
2022/02/02 08:19:21;;;;;;;0.93;0.93;;;-7.50;99.90;;;;;;5037987;28;20665;-68
2022/02/02 08:21:47;;;;;;;0.80;0.80;;;-7.50;99.90;;;;;;5032307;28;20296;-67
2022/02/02 08:24:13;;;;;;;1.00;1.00;;;-7.50;99.90;;;;;;5036981;28;20725;-67
2022/02/02 08:26:39;;;;;;;0.90;0.90;;;-7.40;99.90;;;;;;5052450;28;20205;-66
2022/02/02 08:29:08;;;;;;;1.00;1.00;;;-7.40;99.90;;;;;;5050037;28;20208;-70
2022/02/02 08:31:35;;;;;;;0.80;0.80;;;-7.30;99.90;;;;;;5049722;28;20207;-66
2022/02/02 08:34:08;;;;;;;0.90;0.90;;;-7.30;99.90;;;;;;5050982;28;20223;-66
2022/02/02 08:36:33;;;;;;;0.80;0.80;;;-7.10;99.90;;;;;;5049842;28;20205;-66
2022/02/02 08:41:31;;;;;;;1.10;1.10;;;-7.00;99.90;;;;;;5049687;28;20231;-66
2022/02/02 08:44:08;;;;;;;0.83;0.83;;;-6.80;99.90;;;;;;5048272;28;20220;-67
2022/02/02 08:46:37;;;;;;;2.03;1.83;;;-6.70;99.90;;;;;;5050476;28;20198;-66
2022/02/02 08:49:08;;;;;;;0.90;0.90;;;-6.50;99.90;;;;;;5050612;28;20569;-67
2022/02/02 08:51:39;;;;;;;0.80;0.80;;;-6.30;99.90;;;;;;5038904;28;20198;-67
2022/02/02 09:01:52;;;;;;;0.73;0.73;;;-5.80;99.90;;;;;;5050165;28;20201;-67
2022/02/02 09:07:04;;;;;;;1.00;1.00;;;-5.60;99.90;;;;;;5050612;28;20244;-67
2022/02/02 09:10:15;;;;;;;1.03;1.03;;;-5.50;99.90;;;;;;5044441;28;20229;-66
2022/02/02 09:20:06;;;;;;;1.47;1.37;;;-5.30;99.90;;;;;;5049474;28;20223;-67
2022/02/02 09:23:56;;;;;;;0.80;0.80;;;-5.10;99.90;;;;;;5048902;28;20686;-66
2022/02/02 09:32:21;;;;;;;0.90;0.90;;;-5.00;99.90;;;;;;5049209;28;20203;-66
2022/02/02 09:34:47;;;;;;;0.80;0.80;;;-4.90;99.90;;;;;;5047530;28;20244;-67
2022/02/02 09:37:13;;;;;;;0.80;0.80;;;-4.80;99.90;;;;;;5048825;28;20201;-67
2022/02/02 09:39:45;;;;;;;1.43;1.33;;;-4.80;99.90;;;;;;5048555;28;20221;-67
2022/02/02 09:42:14;;;;;;;1.40;1.30;;;-4.80;99.90;;;;;;5046269;28;20209;-67
2022/02/02 09:44:43;;;;;;;0.80;0.80;;;-4.70;99.90;;;;;;5045842;28;20217;-67
2022/02/02 09:49:49;;;;;;;0.93;0.93;;;-4.60;99.90;;;;;;5038329;28;20694;-67
2022/02/02 09:52:18;;;;;;;1.55;1.45;;;-4.60;99.90;;;;;;5049763;28;20236;-67
2022/02/02 10:03:23;;;;;;;0.85;0.85;;;-4.40;99.90;;;;;;5028700;28;20265;-66
2022/02/02 10:07:22;;;;;;;0.80;0.80;;;-4.30;99.90;;;;;;5043162;28;20194;-67
2022/02/02 10:12:49;;;;;;;0.90;0.90;;;-4.10;99.90;;;;;;5049426;28;20287;-67
2022/02/02 10:15:15;;;;;;;0.90;0.90;;;-4.00;99.90;;;;;;5049101;28;20205;-67
2022/02/02 10:17:40;;;;;;;0.80;0.80;;;-3.80;99.90;;;;;;5048469;28;20206;-67
2022/02/02 10:20:21;;;;;;;0.80;0.80;;;-3.70;99.90;;;;;;5049206;28;20213;-67
2022/02/02 10:22:49;;;;;;;0.80;0.80;;;-3.60;99.90;;;;;;5050127;28;20262;-70
2022/02/02 10:25:24;;;;;;;0.70;0.70;;;-3.60;99.90;;;;;;5049204;28;20212;-67
2022/02/02 10:27:50;;;;;;;1.00;1.00;;;-3.60;99.90;;;;;;5050297;28;20205;-68
2022/02/02 10:30:19;;;;;;;0.80;0.80;;;-3.50;99.90;;;;;;5049218;28;20259;-68
2022/02/02 10:32:47;;;;;;;0.60;0.60;;;-3.30;99.90;;;;;;5049011;28;20260;-69
2022/02/02 10:35:35;;;;;;;0.80;0.80;;;-3.00;99.90;;;;;;5033514;28;20703;-68
2022/02/02 10:38:07;;;;;;;0.75;0.75;;;-2.60;99.90;;;;;;5050149;28;20209;-67
2022/02/02 10:40:45;;;;;;;0.80;0.80;;;-2.70;99.90;;;;;;5049869;28;20263;-69
2022/02/02 10:43:24;;;;;;;0.90;0.90;;;-2.60;99.90;;;;;;5048822;28;20213;-68
2022/02/02 10:45:50;;;;;;;0.80;0.80;;;-2.50;99.90;;;;;;5046790;28;20205;-68
2022/02/02 10:48:39;;;;;;;0.80;0.80;;;-2.40;99.90;;;;;;5048554;28;20238;-67
2022/02/02 10:51:15;;;;;;;0.70;0.70;;;-2.50;99.90;;;;;;5046123;28;20695;-67
2022/02/02 10:54:01;;;;;;;0.65;0.65;;;-2.70;99.90;;;;;;5047221;28;20197;-67
2022/02/02 11:06:45;;;;;;;0.70;0.70;;;-3.00;99.90;;;;;;5047431;28;20566;-68
2022/02/02 11:09:13;;;;;;;1.05;0.88;;;-2.80;99.90;;;;;;5044902;28;20205;-67
2022/02/02 11:11:44;;;;;;;0.70;0.70;;;-2.70;99.90;;;;;;5035978;28;20335;-67
2022/02/02 11:14:34;;;;;;;0.70;0.70;;;-2.70;99.90;;;;;;5044594;28;20252;-67
2022/02/02 11:17:08;;;;;;;0.60;0.60;;;-2.60;99.90;;;;;;5046950;28;20201;-67
2022/02/02 11:19:37;;;;;;;0.52;0.52;;;-2.70;99.90;;;;;;5045328;28;20229;-68
2022/02/02 11:22:30;;;;;;;0.80;0.80;;;-2.80;99.90;;;;;;5043627;28;20214;-68
2022/02/02 11:24:56;;;;;;;0.70;0.70;;;-2.90;99.90;;;;;;5039632;28;20194;-68
2022/02/02 11:27:49;;;;;;;0.70;0.70;;;-2.80;99.90;;;;;;5039789;28;20206;-68
2022/02/02 11:30:24;;;;;;;0.80;0.80;;;-2.80;99.90;;;;;;5047936;28;20197;-67
2022/02/02 11:33:01;;;;;;;0.73;0.73;;;-2.90;99.90;;;;;;5045401;28;20201;-68
2022/02/02 11:35:49;;;;;;;0.70;0.70;;;-3.10;99.90;;;;;;5045346;28;20213;-68
2022/02/02 11:38:25;;;;;;;0.65;0.65;;;-3.20;99.90;;;;;;5046809;28;20205;-68
2022/02/02 11:46:44;;;;;;;0.80;0.80;;;-2.70;99.90;;;;;;5047375;28;20695;-68
2022/02/02 11:49:20;;;;;;;0.80;0.80;;;-2.60;99.90;;;;;;5048335;28;20202;-68
2022/02/02 11:51:54;;;;;;;0.77;0.77;;;-2.60;99.90;;;;;;5048997;28;20196;-68
2022/02/02 11:54:41;;;;;;;0.80;0.80;;;-2.50;99.90;;;;;;5046703;28;20197;-70
2022/02/02 11:57:18;;;;;;;0.77;0.77;;;-2.50;99.90;;;;;;5013680;28;20222;-67
2022/02/02 12:02:29;;;;;;;0.82;0.82;;;-2.70;99.90;;;;;;5047745;28;20779;-67
2022/02/02 12:05:28;;;;;;;1.20;1.17;;;-2.60;99.90;;;;;;5013856;28;20685;-68
2022/02/02 12:07:59;;;;;;;0.80;0.80;;;-2.50;99.90;;;;;;5044102;28;20263;-67
2022/02/02 12:47:28;;;;;;;0.60;0.60;;;-2.00;99.90;;;;;;5049686;28;20189;-68
2022/02/02 12:58:14;;;;;;;0.80;0.80;;;-2.10;99.90;;;;;;5051080;28;20263;-68
2022/02/02 13:01:07;;;;;;;0.70;0.70;;;-2.10;99.90;;;;;;5033016;28;20202;-67
2022/02/02 13:03:29;;;;;;;0.75;0.75;;;-2.00;99.90;;;;;;5017766;28;20214;-67
2022/02/02 13:05:55;;;;;;;0.70;0.70;;;-2.00;99.90;;;;;;5049382;28;20728;-69
2022/02/02 13:08:20;;;;;;;0.90;0.90;;;-2.00;99.90;;;;;;5032619;28;20285;-68
2022/02/02 13:10:46;;;;;;;0.70;0.70;;;-2.10;99.90;;;;;;5037010;28;20240;-68
2022/02/02 13:13:23;;;;;;;1.05;1.05;;;-2.10;99.90;;;;;;5050748;28;20289;-68
2022/02/02 13:15:58;;;;;;;0.80;0.80;;;-2.10;99.90;;;;;;5050590;28;20208;-67
2022/02/02 13:24:10;;;;;;;0.82;0.82;;;-2.10;99.90;;;;;;5050518;28;20680;-74
2022/02/02 13:26:57;;;;;;;0.80;0.80;;;-2.20;99.90;;;;;;5021854;28;20286;-68
2022/02/02 13:32:12;;;;;;;0.75;0.75;;;-2.30;99.90;;;;;;5045868;28;20707;-67
2022/02/02 13:56:30;;;;;;;0.60;0.60;;;-2.70;99.90;;;;;;5032128;28;20225;-67
2022/02/02 13:59:22;;;;;;;0.70;0.70;;;-2.80;99.90;;;;;;5049243;28;20197;-67
2022/02/02 14:31:37;;;;;;;0.80;0.80;;;-3.30;99.90;;;;;;5031469;28;20288;-67
2022/02/02 14:34:04;;;;;;;0.80;0.80;;;-3.30;99.90;;;;;;5049635;28;20552;-67
2022/02/02 14:36:37;;;;;;;0.80;0.80;;;-3.40;99.90;;;;;;5032347;28;20210;-67
2022/02/02 14:44:21;;;;;;;0.80;0.80;;;-3.30;99.90;;;;;;5049567;28;20315;-67
2022/02/02 14:49:25;;;;;;;0.82;0.82;;;-3.30;99.90;;;;;;5015227;28;20696;-68
2022/02/02 14:52:08;;;;;;;0.77;0.77;;;-3.30;99.90;;;;;;5032190;28;20204;-68
2022/02/02 14:55:05;;;;;;;0.80;0.80;;;-3.30;99.90;;;;;;5045019;28;20198;-67
2022/02/02 15:27:33;;;;;;;0.80;0.80;;;-3.40;99.90;;;;;;5048481;28;20280;-67
2022/02/02 15:30:50;;;;;;;0.80;0.80;;;-3.40;99.90;;;;;;5048716;28;20198;-67
2022/02/02 15:32:48;;;;;;;0.80;0.80;;;-3.40;99.90;;;;;;5013506;28;20209;-68
2022/02/02 15:35:13;;;;;;;0.73;0.73;;;-3.50;99.90;;;;;;5020746;28;20182;-68
2022/02/02 15:38:28;;;;;;;0.70;0.70;;;-3.50;99.90;;;;;;5049207;28;20205;-70
2022/02/02 15:40:43;;;;;;;0.80;0.80;;;-3.50;99.90;;;;;;5017726;28;20589;-68
2022/02/02 15:57:26;;;;;;;0.85;0.85;;;-3.50;99.90;;;;;;5046485;28;20259;-67
2022/02/02 15:59:39;;;;;;;0.80;0.80;;;-3.50;99.90;;;;;;5042757;28;20220;-67
2022/02/02 16:04:33;;;;;;;0.70;0.70;;;-3.50;99.90;;;;;;5047466;28;20244;-67
2022/02/02 16:07:03;;;;;;;0.80;0.80;;;-3.50;99.90;;;;;;5047333;28;20247;-67
2022/02/02 16:09:38;;;;;;;0.70;0.70;;;-3.40;99.90;;;;;;5045604;28;20194;-68
2022/02/02 16:13:04;;;;;;;0.70;0.70;;;-3.40;99.90;;;;;;5041560;28;20224;-67
2022/02/02 16:36:21;;;;;;;1.27;1.17;;;-3.50;99.90;;;;;;5051275;28;20215;-67
2022/02/02 16:38:58;;;;;;;0.63;0.63;;;-3.60;99.90;;;;;;5049918;28;20258;-67
2022/02/02 16:44:09;;;;;;;0.80;0.80;;;-3.60;99.90;;;;;;5050898;28;20267;-67
2022/02/02 16:46:35;;;;;;;0.82;0.82;;;-3.60;99.90;;;;;;5049574;28;20197;-66
2022/02/02 16:49:01;;;;;;;0.80;0.80;;;-3.60;99.90;;;;;;5050789;28;20552;-67
2022/02/02 16:51:26;;;;;;;0.80;0.80;;;-3.60;99.90;;;;;;5050653;28;20512;-68
2022/02/02 16:53:56;;;;;;;0.80;0.80;;;-3.60;99.90;;;;;;5050770;28;20251;-66
2022/02/02 17:31:56;;;;;;;1.17;1.17;;;-3.40;99.90;;;;;;5047708;28;20209;-67
2022/02/02 17:34:34;;;;;;;0.80;0.80;;;-3.40;99.90;;;;;;5049723;28;20197;-67
2022/02/02 17:39:35;;;;;;;0.73;0.73;;;-3.50;99.90;;;;;;5049936;28;20284;-67
2022/02/02 17:42:25;;;;;;;1.08;1.08;;;-3.50;99.90;;;;;;5049755;28;20201;-67
2022/02/02 17:45:24;;;;;;;0.82;0.82;;;-3.50;99.90;;;;;;5049541;28;20209;-67
2022/02/02 18:02:02;;;;;;;0.90;0.90;;;-3.50;99.90;;;;;;5017101;28;20276;-67
2022/02/02 18:20:22;;;;;;;0.80;0.80;;;-3.50;99.90;;;;;;5049140;28;20212;-67
2022/02/02 18:22:55;;;;;;;0.90;0.90;;;-3.50;99.90;;;;;;5049192;28;20297;-67
2022/02/02 18:25:31;;;;;;;0.80;0.80;;;-3.50;99.90;;;;;;5045481;28;20231;-69
2022/02/02 18:28:08;;;;;;;0.90;0.90;;;-3.50;99.90;;;;;;5048974;28;20564;-67
2022/02/02 18:36:22;;;;;;;0.90;0.90;;;-3.50;99.90;;;;;;5047730;28;20722;-67
2022/02/02 18:57:16;;;;;;;1.00;1.00;;;-3.50;99.90;;;;;;5029132;28;20337;-69
2022/02/02 19:15:01;;;;;;;0.70;0.70;;;-3.80;99.90;;;;;;5035123;28;20264;-68
2022/02/02 19:39:14;;;;;;;0.80;0.80;;;-4.30;99.90;;;;;;5047484;28;20250;-66
2022/02/02 20:06:00;;;;;;;0.70;0.70;;;-4.50;99.90;;;;;;5050510;28;20205;-68
2022/02/02 20:08:46;;;;;;;0.90;0.90;;;-4.60;99.90;;;;;;5047956;28;20236;-67
2022/02/02 20:11:18;;;;;;;0.80;0.80;;;-4.60;99.90;;;;;;5050765;28;20664;-67
2022/02/02 20:13:44;;;;;;;0.80;0.80;;;-4.60;99.90;;;;;;5048942;28;20205;-69
2022/02/02 20:16:10;;;;;;;0.90;0.90;;;-4.60;99.90;;;;;;5051503;28;20707;-68
2022/02/02 20:18:40;;;;;;;0.75;0.75;;;-4.60;99.90;;;;;;5039301;28;20576;-68
2022/02/02 20:21:09;;;;;;;0.90;0.90;;;-4.60;99.90;;;;;;5047387;28;20251;-68
2022/02/02 20:23:41;;;;;;;0.80;0.80;;;-4.70;99.90;;;;;;5050055;28;20280;-70
2022/02/02 20:26:09;;;;;;;0.85;0.85;;;-4.60;99.90;;;;;;5050124;28;20197;-68
2022/02/02 20:28:34;;;;;;;0.70;0.70;;;-4.60;99.90;;;;;;5051065;28;20206;-68
2022/02/02 20:31:00;;;;;;;0.90;0.90;;;-4.60;99.90;;;;;;5050175;28;20205;-68
2022/02/02 20:33:27;;;;;;;0.75;0.75;;;-4.60;99.90;;;;;;5031196;28;20203;-67
2022/02/02 20:35:54;;;;;;;1.02;1.02;;;-4.60;99.90;;;;;;5034181;28;20213;-68
2022/02/02 20:38:20;;;;;;;0.70;0.70;;;-4.60;99.90;;;;;;5043607;28;20209;-68
2022/02/02 20:40:46;;;;;;;0.70;0.70;;;-4.50;99.90;;;;;;5041069;28;20205;-69
2022/02/02 20:43:18;;;;;;;0.80;0.80;;;-4.50;99.90;;;;;;5044389;28;20210;-68
2022/02/02 21:04:28;;;;;;;0.80;0.80;;;-4.40;99.90;;;;;;5045784;28;20296;-67
2022/02/02 21:10:24;;;;;;;0.90;0.90;;;-4.30;99.90;;;;;;5045807;28;20202;-69
2022/02/02 21:14:49;;;;;;;0.70;0.70;;;-4.30;99.90;;;;;;5049120;28;20260;-68
2022/02/02 21:17:25;;;;;;;0.90;0.90;;;-4.40;99.90;;;;;;5049614;28;20537;-68
2022/02/02 21:19:56;;;;;;;0.70;0.70;;;-4.40;99.90;;;;;;5046810;28;20212;-68
2022/02/02 21:22:23;;;;;;;0.80;0.80;;;-4.50;99.90;;;;;;5046489;28;20309;-67
2022/02/02 21:27:52;;;;;;;3.03;1.40;;;-4.60;99.90;;;;;;5048980;28;20201;-67
2022/02/02 21:30:08;;;;;;;0.80;0.80;;;-4.60;99.90;;;;;;5049698;28;20210;-68
2022/02/02 21:32:34;;;;;;;0.80;0.80;;;-4.60;99.90;;;;;;5048920;28;20213;-68
2022/02/02 21:35:05;;;;;;;0.70;0.70;;;-4.60;99.90;;;;;;5049977;28;20197;-67
2022/02/02 21:37:33;;;;;;;0.80;0.80;;;-4.60;99.90;;;;;;5049869;28;20231;-68
2022/02/02 21:40:18;;;;;;;0.80;0.80;;;-4.60;99.90;;;;;;5048877;28;20328;-67
2022/02/02 21:42:45;;;;;;;0.90;0.90;;;-4.70;99.90;;;;;;5047648;28;20201;-67
2022/02/02 21:45:12;;;;;;;0.90;0.90;;;-4.80;99.90;;;;;;5046894;28;20209;-67
2022/02/02 21:47:39;;;;;;;0.80;0.80;;;-4.80;99.90;;;;;;5049576;28;20209;-67
2022/02/02 21:50:11;;;;;;;1.97;1.77;;;-4.80;99.90;;;;;;5047311;28;20246;-67
2022/02/02 21:52:38;;;;;;;0.80;0.80;;;-4.90;99.90;;;;;;5047176;28;20248;-67
2022/02/02 21:55:05;;;;;;;1.10;1.00;;;-4.80;99.90;;;;;;5048358;28;20202;-68
2022/02/02 21:57:31;;;;;;;0.90;0.90;;;-4.90;99.90;;;;;;5047096;28;20229;-67
2022/02/02 21:59:57;;;;;;;0.80;0.80;;;-4.90;99.90;;;;;;5040635;28;20233;-67
2022/02/02 22:02:23;;;;;;;1.27;1.20;;;-4.90;99.90;;;;;;5047988;28;20658;-67
2022/02/02 22:04:49;;;;;;;0.80;0.80;;;-5.00;99.90;;;;;;5048858;28;20284;-67
2022/02/02 22:07:15;;;;;;;0.87;0.87;;;-5.10;99.90;;;;;;5049473;28;20202;-67
2022/02/02 22:09:42;;;;;;;0.80;0.80;;;-5.10;99.90;;;;;;5037869;28;20553;-67
2022/02/02 22:12:09;;;;;;;0.77;0.77;;;-5.10;99.90;;;;;;5038648;28;20723;-68
2022/02/02 22:14:35;;;;;;;0.70;0.70;;;-5.10;99.90;;;;;;5035626;28;20205;-67
2022/02/02 22:17:03;;;;;;;0.73;0.73;;;-5.20;99.90;;;;;;5049057;28;20198;-69
2022/02/02 22:19:29;;;;;;;0.90;0.90;;;-5.30;99.90;;;;;;5049251;28;20201;-67
2022/02/02 22:21:55;;;;;;;0.80;0.80;;;-5.30;99.90;;;;;;5049215;28;20202;-68
2022/02/02 22:24:21;;;;;;;0.83;0.83;;;-5.30;99.90;;;;;;5048728;28;20758;-68
2022/02/02 22:26:47;;;;;;;0.80;0.80;;;-5.40;99.90;;;;;;5035707;28;20251;-67
2022/02/02 22:29:13;;;;;;;1.20;1.15;;;-5.50;99.90;;;;;;5046595;28;20280;-67
2022/02/02 22:31:39;;;;;;;0.77;0.77;;;-5.50;99.90;;;;;;5047716;28;20209;-67
2022/02/02 22:34:04;;;;;;;3.20;1.30;;;-5.50;99.90;;;;;;5048838;28;20231;-67
2022/02/02 22:36:30;;;;;;;0.90;0.90;;;-5.50;99.90;;;;;;5046377;28;20209;-67
2022/02/02 22:38:56;;;;;;;0.80;0.80;;;-5.40;99.90;;;;;;5048833;28;20235;-67
2022/02/02 22:41:22;;;;;;;1.00;1.00;;;-5.50;99.90;;;;;;5044169;28;20583;-68
2022/02/02 22:43:51;;;;;;;0.87;0.87;;;-5.50;99.90;;;;;;5047401;28;20613;-67
2022/02/02 22:46:19;;;;;;;0.73;0.73;;;-5.50;99.90;;;;;;5048729;28;20673;-70
2022/02/02 22:48:45;;;;;;;0.90;0.90;;;-5.50;99.90;;;;;;5048674;28;20233;-67
2022/02/02 22:51:12;;;;;;;0.80;0.80;;;-5.50;99.90;;;;;;5047578;28;20208;-67
2022/02/02 22:53:38;;;;;;;0.90;0.90;;;-5.50;99.90;;;;;;5048485;28;20237;-67
2022/02/02 22:56:04;;;;;;;1.10;1.07;;;-5.50;99.90;;;;;;5036554;28;20856;-67
2022/02/02 22:58:29;;;;;;;0.80;0.80;;;-5.50;99.90;;;;;;5047393;28;20281;-67
2022/02/02 23:00:55;;;;;;;0.90;0.90;;;-5.40;99.90;;;;;;5047157;28;20685;-68
2022/02/02 23:03:23;;;;;;;0.83;0.83;;;-5.40;99.90;;;;;;5049137;28;20218;-68
2022/02/02 23:05:56;;;;;;;0.80;0.80;;;-5.30;99.90;;;;;;5048574;28;20259;-68
2022/02/02 23:08:25;;;;;;;0.70;0.70;;;-5.30;99.90;;;;;;5014969;28;20206;-68
2022/02/02 23:10:51;;;;;;;0.80;0.80;;;-5.20;99.90;;;;;;5047380;28;20673;-67
2022/02/02 23:13:18;;;;;;;0.90;0.90;;;-5.20;99.90;;;;;;5049756;28;20208;-67
2022/02/02 23:18:33;;;;;;;0.90;0.90;;;-5.20;99.90;;;;;;5034940;28;20205;-67
2022/02/02 23:21:02;;;;;;;1.20;1.13;;;-5.20;99.90;;;;;;5048712;28;20264;-67
2022/02/02 23:23:31;;;;;;;2.40;2.20;;;-5.20;99.90;;;;;;5048572;28;20312;-67
2022/02/02 23:25:59;;;;;;;0.80;0.80;;;-5.20;99.90;;;;;;5049330;28;20255;-67
2022/02/02 23:28:29;;;;;;;1.90;1.80;;;-5.20;99.90;;;;;;5047244;28;20205;-67
2022/02/02 23:30:56;;;;;;;1.53;1.43;;;-5.20;99.90;;;;;;5047984;28;20707;-67
2022/02/02 23:33:22;;;;;;;0.90;0.90;;;-5.20;99.90;;;;;;5046804;28;20579;-67
2022/02/02 23:35:49;;;;;;;1.10;0.93;;;-5.10;99.90;;;;;;5046910;28;20205;-68
2022/02/02 23:38:15;;;;;;;0.80;0.80;;;-5.10;99.90;;;;;;5046818;28;20205;-68
2022/02/02 23:43:22;;;;;;;0.83;0.83;;;-5.10;99.90;;;;;;5048059;28;20216;-67
2022/02/02 23:45:55;;;;;;;0.70;0.70;;;-5.10;99.90;;;;;;5045595;28;20703;-67
2022/02/02 23:48:22;;;;;;;0.80;0.80;;;-5.10;99.90;;;;;;5046727;28;20205;-68
2022/02/02 23:50:52;;;;;;;0.80;0.80;;;-5.10;99.90;;;;;;5043704;28;20190;-67
2022/02/02 23:53:20;;;;;;;0.87;0.87;;;-5.00;99.90;;;;;;5040522;28;20669;-67
2022/02/02 23:55:51;;;;;;;0.77;0.77;;;-5.10;99.90;;;;;;5047766;28;20625;-68
2022/02/02 23:58:31;;;;;;;0.80;0.80;;;-5.00;99.90;;;;;;5046793;28;20233;-68
